Time;durP1;ratioP1;P1;durP2;ratioP2;P2;SDS_P1;SDS_P2;PMS_P1;PMS_P2;Temp;Humidity;BMP_temperature;BMP_pressure;BME280_temperature;BME280_humidity;BME280_pressure;Samples;Min_cycle;Max_cycle;Signal;HPM_P1;HPM_P2
2024/05/07 00:01:21;;;;;;;;;;;21.10;58.30;;;;;;5426428;26;1227;-88
2024/05/07 00:03:46;;;;;;;;;;;21.20;58.40;;;;;;5458221;26;1532;-89
2024/05/07 00:06:11;;;;;;;;;;;21.10;58.20;;;;;;5458489;26;934;-89
2024/05/07 00:08:37;;;;;;;;;;;21.10;58.20;;;;;;5457842;26;1814;-89
2024/05/07 00:11:02;;;;;;;;;;;21.10;58.20;;;;;;5425561;26;1930;-89
2024/05/07 00:13:27;;;;;;;;;;;21.20;58.30;;;;;;5457567;26;1444;-89
2024/05/07 00:15:53;;;;;;;;;;;21.10;58.10;;;;;;5458040;26;1552;-89
2024/05/07 00:18:18;;;;;;;;;;;21.10;58.10;;;;;;5457511;26;938;-89
2024/05/07 00:20:43;;;;;;;;;;;21.10;58.10;;;;;;5425855;26;1637;-89
2024/05/07 00:23:09;;;;;;;;;;;21.10;58.00;;;;;;5457736;26;1431;-89
2024/05/07 00:25:34;;;;;;;;;;;21.10;58.10;;;;;;5425867;26;1566;-89
2024/05/07 00:28:00;;;;;;;;;;;21.10;58.00;;;;;;5457035;26;1384;-89
2024/05/07 00:30:27;;;;;;;;;;;21.10;58.00;;;;;;5457582;26;1844;-89
2024/05/07 00:32:52;;;;;;;;;;;21.10;57.90;;;;;;5426408;26;1673;-89
2024/05/07 00:35:18;;;;;;;;;;;21.10;57.90;;;;;;5425668;26;1676;-89
2024/05/07 00:37:43;;;;;;;;;;;21.10;57.90;;;;;;5425868;26;1482;-89
2024/05/07 00:40:08;;;;;;;;;;;21.10;57.90;;;;;;5457873;26;919;-89
2024/05/07 00:42:34;;;;;;;;;;;21.10;57.90;;;;;;5457410;26;1645;-89
2024/05/07 00:44:59;;;;;;;;;;;21.10;58.00;;;;;;5425788;26;1613;-89
2024/05/07 00:47:24;;;;;;;;;;;21.10;57.90;;;;;;5425373;26;1789;-89
2024/05/07 00:49:50;;;;;;;;;;;21.10;57.90;;;;;;5425680;26;1826;-89
2024/05/07 00:52:15;;;;;;;;;;;21.10;57.90;;;;;;5425684;26;1271;-89
2024/05/07 00:54:41;;;;;;;;;;;21.10;57.80;;;;;;5457287;26;1041;-89
2024/05/07 00:57:06;;;;;;;;;;;21.10;57.90;;;;;;5456763;26;1609;-89
2024/05/07 00:59:31;;;;;;;;;;;21.10;57.90;;;;;;5425516;26;1277;-89
2024/05/07 01:01:57;;;;;;;;;;;21.10;57.80;;;;;;5456875;26;1136;-89
2024/05/07 01:04:23;;;;;;;;;;;21.10;57.70;;;;;;5457317;26;903;-89
2024/05/07 01:06:49;;;;;;;;;;;21.10;57.70;;;;;;5424642;26;1718;-89
2024/05/07 01:09:14;;;;;;;;;;;21.10;57.80;;;;;;5425435;26;1822;-89
2024/05/07 01:11:41;;;;;;;;;;;21.10;57.60;;;;;;5456778;26;1390;-89
2024/05/07 01:14:06;;;;;;;;;;;21.10;57.60;;;;;;5457110;26;847;-89
2024/05/07 01:16:32;;;;;;;;;;;21.00;57.60;;;;;;5457190;26;1104;-89
2024/05/07 01:18:57;;;;;;;;;;;21.10;58.20;;;;;;5419776;26;1723;-89
2024/05/07 01:21:22;;;;;;;;;;;21.10;57.60;;;;;;5425251;26;1542;-89
2024/05/07 01:23:48;;;;;;;;;;;21.10;57.60;;;;;;5425229;26;1530;-89
2024/05/07 01:26:14;;;;;;;;;;;21.10;57.40;;;;;;5425301;26;1192;-89
2024/05/07 01:28:39;;;;;;;;;;;21.10;57.40;;;;;;5456521;26;1872;-88
2024/05/07 01:31:04;;;;;;;;;;;21.10;57.50;;;;;;5423640;26;1514;-89
2024/05/07 01:33:30;;;;;;;;;;;21.10;57.40;;;;;;5457119;26;1660;-89
2024/05/07 01:35:55;;;;;;;;;;;21.00;57.30;;;;;;5456164;26;1207;-89
2024/05/07 01:38:20;;;;;;;;;;;21.10;57.40;;;;;;5392524;26;1475;-89
2024/05/07 01:40:46;;;;;;;;;;;21.10;57.20;;;;;;5456215;26;1635;-89
2024/05/07 01:43:11;;;;;;;;;;;21.10;57.30;;;;;;5424992;26;1689;-89
2024/05/07 01:45:36;;;;;;;;;;;21.10;57.30;;;;;;5456422;26;1037;-89
2024/05/07 01:48:02;;;;;;;;;;;21.10;57.30;;;;;;5456942;26;1906;-89
2024/05/07 01:50:27;;;;;;;;;;;21.00;57.20;;;;;;5456214;26;1821;-89
2024/05/07 01:52:52;;;;;;;;;;;21.00;57.20;;;;;;5456157;26;1580;-89
2024/05/07 01:55:18;;;;;;;;;;;21.00;57.20;;;;;;5456416;26;859;-88
2024/05/07 01:57:43;;;;;;;;;;;21.10;57.90;;;;;;5456111;26;1552;-89
2024/05/07 02:00:09;;;;;;;;;;;21.10;57.20;;;;;;5455829;26;1710;-89
2024/05/07 02:02:34;;;;;;;;;;;21.00;57.00;;;;;;5456830;26;1696;-89
2024/05/07 02:04:59;;;;;;;;;;;21.00;57.10;;;;;;5455808;26;1561;-89
2024/05/07 02:07:25;;;;;;;;;;;21.00;57.10;;;;;;5456200;26;1029;-89
2024/05/07 02:09:50;;;;;;;;;;;21.00;57.00;;;;;;5424785;26;1861;-89
2024/05/07 02:12:15;;;;;;;;;;;21.00;57.00;;;;;;5455372;26;1664;-89
2024/05/07 02:14:41;;;;;;;;;;;21.00;56.90;;;;;;5455825;26;1429;-89
2024/05/07 02:17:06;;;;;;;;;;;21.00;56.80;;;;;;5424316;26;1620;-89
2024/05/07 02:19:31;;;;;;;;;;;21.00;56.90;;;;;;5454676;26;1888;-89
2024/05/07 02:21:57;;;;;;;;;;;21.00;56.80;;;;;;5424226;26;1712;-89
2024/05/07 02:24:23;;;;;;;;;;;21.00;56.80;;;;;;5455779;26;1470;-89
2024/05/07 02:26:48;;;;;;;;;;;21.00;56.80;;;;;;5455544;26;1624;-89
2024/05/07 02:29:14;;;;;;;;;;;21.00;56.80;;;;;;5455882;26;1818;-89
2024/05/07 02:31:39;;;;;;;;;;;21.00;56.80;;;;;;5424103;26;1514;-89
2024/05/07 02:34:04;;;;;;;;;;;21.00;56.80;;;;;;5455115;26;1455;-89
2024/05/07 02:36:30;;;;;;;;;;;21.00;56.60;;;;;;5455829;26;1106;-89
2024/05/07 02:38:55;;;;;;;;;;;21.00;56.80;;;;;;5424789;26;1647;-89
2024/05/07 02:41:20;;;;;;;;;;;21.00;56.70;;;;;;5420754;26;1061;-89
2024/05/07 02:43:46;;;;;;;;;;;21.00;56.70;;;;;;5419506;26;1499;-89
2024/05/07 02:46:11;;;;;;;;;;;21.00;56.70;;;;;;5459613;26;1069;-89
2024/05/07 02:48:37;;;;;;;;;;;21.00;56.70;;;;;;5458673;26;1830;-89
2024/05/07 02:51:02;;;;;;;;;;;21.00;56.70;;;;;;5459435;26;934;-89
2024/05/07 02:53:27;;;;;;;;;;;21.00;56.50;;;;;;5459009;26;1650;-89
2024/05/07 02:55:53;;;;;;;;;;;21.00;56.60;;;;;;5458903;26;1528;-89
2024/05/07 02:58:18;;;;;;;;;;;21.00;56.60;;;;;;5458982;26;850;-89
2024/05/07 03:00:43;;;;;;;;;;;21.00;56.50;;;;;;5481978;21;2221;-89
2024/05/07 03:03:09;;;;;;;;;;;21.00;56.50;;;;;;5423703;26;1093;-89
2024/05/07 03:05:35;;;;;;;;;;;21.00;56.50;;;;;;5440438;26;1597;-89
2024/05/07 03:08:00;;;;;;;;;;;21.00;56.50;;;;;;5423288;26;844;-89
2024/05/07 03:10:25;;;;;;;;;;;21.00;56.50;;;;;;5423223;26;1928;-89
2024/05/07 03:12:51;;;;;;;;;;;21.00;56.50;;;;;;5423412;26;871;-89
2024/05/07 03:15:16;;;;;;;;;;;21.00;56.40;;;;;;5423003;26;1545;-89
2024/05/07 03:17:41;;;;;;;;;;;20.90;57.00;;;;;;5457247;26;1467;-89
2024/05/07 03:20:07;;;;;;;;;;;21.00;56.50;;;;;;5455519;26;1593;-89
2024/05/07 03:22:32;;;;;;;;;;;21.00;56.30;;;;;;5496101;26;925;-89
2024/05/07 03:24:58;;;;;;;;;;;21.00;56.30;;;;;;5495212;26;1452;-89
2024/05/07 03:27:23;;;;;;;;;;;21.00;56.30;;;;;;5495662;26;1728;-89
2024/05/07 03:29:48;;;;;;;;;;;20.90;56.20;;;;;;5495272;26;1818;-90
2024/05/07 03:32:14;;;;;;;;;;;20.90;56.30;;;;;;5463461;26;1344;-89
2024/05/07 03:34:39;;;;;;;;;;;20.90;56.20;;;;;;5495271;26;1699;-89
2024/05/07 03:37:04;;;;;;;;;;;21.00;56.20;;;;;;5463347;26;1263;-89
2024/05/07 03:39:30;;;;;;;;;;;21.00;56.20;;;;;;5495594;26;1061;-89
2024/05/07 03:41:55;;;;;;;;;;;20.90;56.20;;;;;;5495172;26;930;-89
2024/05/07 03:44:20;;;;;;;;;;;21.00;56.20;;;;;;5494817;26;1635;-89
2024/05/07 03:46:46;;;;;;;;;;;21.00;56.20;;;;;;5463035;26;1437;-89
2024/05/07 03:49:11;;;;;;;;;;;21.00;56.10;;;;;;5494991;26;1864;-89
2024/05/07 03:51:37;;;;;;;;;;;20.90;56.10;;;;;;5494877;26;1117;-89
2024/05/07 03:54:02;;;;;;;;;;;20.90;56.00;;;;;;5462150;26;1635;-89
2024/05/07 03:56:27;;;;;;;;;;;20.90;56.00;;;;;;5495455;26;1587;-89
2024/05/07 03:58:53;;;;;;;;;;;21.00;56.00;;;;;;5495027;26;1018;-89
2024/05/07 04:01:18;;;;;;;;;;;20.90;55.90;;;;;;5495055;26;1083;-89
2024/05/07 04:03:43;;;;;;;;;;;20.90;55.80;;;;;;5494593;26;1413;-89
2024/05/07 04:06:09;;;;;;;;;;;20.90;55.80;;;;;;5462404;26;1400;-89
2024/05/07 04:08:34;;;;;;;;;;;20.90;55.90;;;;;;5495069;26;1822;-89
2024/05/07 04:11:00;;;;;;;;;;;20.90;55.90;;;;;;5494860;26;1057;-89
2024/05/07 04:13:25;;;;;;;;;;;20.90;55.90;;;;;;5463002;26;1231;-89
2024/05/07 04:15:51;;;;;;;;;;;20.90;55.90;;;;;;5494721;26;954;-89
2024/05/07 04:18:16;;;;;;;;;;;20.90;55.90;;;;;;5494784;26;1565;-89
2024/05/07 04:20:42;;;;;;;;;;;20.90;55.90;;;;;;5462681;26;1260;-89
2024/05/07 04:23:07;;;;;;;;;;;20.90;55.80;;;;;;5494919;26;968;-89
2024/05/07 04:25:32;;;;;;;;;;;20.90;55.90;;;;;;5494664;26;1022;-89
2024/05/07 04:27:58;;;;;;;;;;;20.90;55.80;;;;;;5494172;26;1568;-89
2024/05/07 04:30:23;;;;;;;;;;;20.90;55.70;;;;;;5494788;26;1825;-90
2024/05/07 04:32:48;;;;;;;;;;;20.90;55.70;;;;;;5499096;26;859;-89
2024/05/07 04:35:14;;;;;;;;;;;20.90;55.50;;;;;;5517135;26;1441;-89
2024/05/07 04:37:39;;;;;;;;;;;20.90;55.70;;;;;;5517242;26;920;-90
2024/05/07 04:40:04;;;;;;;;;;;20.90;55.60;;;;;;5517416;26;978;-89
2024/05/07 04:42:30;;;;;;;;;;;20.90;55.50;;;;;;5486208;26;1524;-89
2024/05/07 04:44:55;;;;;;;;;;;20.90;55.50;;;;;;5485888;26;1481;-90
2024/05/07 04:47:20;;;;;;;;;;;20.90;55.60;;;;;;5517187;26;1087;-89
2024/05/07 04:49:46;;;;;;;;;;;20.90;55.60;;;;;;5517066;26;1853;-89
2024/05/07 04:52:11;;;;;;;;;;;20.90;55.60;;;;;;5517033;26;1417;-89
2024/05/07 04:54:37;;;;;;;;;;;20.90;55.80;;;;;;5516621;26;1541;-90
2024/05/07 04:57:02;;;;;;;;;;;20.90;57.80;;;;;;5517061;26;1048;-90
2024/05/07 04:59:27;;;;;;;;;;;20.90;59.20;;;;;;5516957;26;1096;-90
2024/05/07 05:01:55;;;;;;;;;;;20.90;63.00;;;;;;5516769;26;1125;-88
2024/05/07 05:04:20;;;;;;;;;;;20.90;64.10;;;;;;5515065;26;1414;-90
2024/05/07 05:06:46;;;;;;;;;;;21.00;63.30;;;;;;5515759;26;1353;-91
2024/05/07 05:09:11;;;;;;;;;;;21.00;62.70;;;;;;5515535;26;1814;-90
2024/05/07 05:11:38;;;;;;;;;;;21.00;61.80;;;;;;5502458;26;1097;-90
2024/05/07 05:14:03;;;;;;;;;;;21.00;61.10;;;;;;5494251;26;905;-90
2024/05/07 05:16:28;;;;;;;;;;;21.00;61.00;;;;;;5495047;26;1533;-90
2024/05/07 05:18:54;;;;;;;;;;;21.00;60.60;;;;;;5462835;26;1510;-91
2024/05/07 05:21:19;;;;;;;;;;;21.00;60.30;;;;;;5494951;26;968;-90
2024/05/07 05:23:44;;;;;;;;;;;21.00;60.10;;;;;;5494606;26;873;-90
2024/05/07 05:26:10;;;;;;;;;;;21.00;59.50;;;;;;5494016;26;1543;-90
2024/05/07 05:28:35;;;;;;;;;;;21.00;59.60;;;;;;5496824;26;1845;-90
2024/05/07 05:31:01;;;;;;;;;;;21.00;59.40;;;;;;5495750;26;1643;-89
2024/05/07 05:33:26;;;;;;;;;;;21.00;59.60;;;;;;5496296;26;1498;-91
2024/05/07 05:35:51;;;;;;;;;;;21.00;59.30;;;;;;5496647;26;1687;-92
2024/05/07 05:38:17;;;;;;;;;;;21.10;59.20;;;;;;5495807;26;861;-91
2024/05/07 05:40:42;;;;;;;;;;;21.00;58.90;;;;;;5495676;26;1506;-90
2024/05/07 05:43:07;;;;;;;;;;;21.00;59.10;;;;;;5462399;26;1250;-91
2024/05/07 05:45:33;;;;;;;;;;;21.00;58.80;;;;;;5494825;26;1022;-91
2024/05/07 05:47:58;;;;;;;;;;;21.10;57.10;;;;;;5493651;26;1016;-91
2024/05/07 05:50:23;;;;;;;;;;;20.80;56.40;;;;;;5493762;26;1837;-91
2024/05/07 05:52:49;;;;;;;;;;;20.80;57.10;;;;;;5493904;26;1084;-91
2024/05/07 05:55:14;;;;;;;;;;;20.90;58.20;;;;;;5494842;26;855;-91
2024/05/07 05:57:39;;;;;;;;;;;20.80;57.40;;;;;;5495268;26;926;-92
2024/05/07 06:00:05;;;;;;;;;;;20.90;57.60;;;;;;5495767;26;1588;-91
2024/05/07 06:02:30;;;;;;;;;;;20.90;57.70;;;;;;5426963;26;1227;-92
2024/05/07 06:04:56;;;;;;;;;;;20.90;57.70;;;;;;5458320;26;839;-92
2024/05/07 06:07:21;;;;;;;;;;;20.90;57.40;;;;;;5459374;26;950;-91
2024/05/07 06:09:46;;;;;;;;;;;21.00;57.50;;;;;;5459352;26;1850;-90
2024/05/07 06:12:12;;;;;;;;;;;21.00;57.30;;;;;;5457545;26;1494;-91
2024/05/07 06:14:37;;;;;;;;;;;21.00;57.30;;;;;;5426410;26;1132;-90
2024/05/07 06:17:02;;;;;;;;;;;21.00;57.20;;;;;;5463056;26;1030;-90
2024/05/07 06:19:28;;;;;;;;;;;21.00;57.20;;;;;;5465886;26;1178;-90
2024/05/07 06:21:53;;;;;;;;;;;21.00;57.00;;;;;;5465064;26;1636;-90
2024/05/07 06:24:18;;;;;;;;;;;21.00;57.00;;;;;;5433990;26;1319;-91
2024/05/07 06:26:45;;;;;;;;;;;21.00;56.90;;;;;;5465400;26;934;-91
2024/05/07 06:29:11;;;;;;;;;;;21.00;57.00;;;;;;5434140;26;1839;-90
2024/05/07 06:31:36;;;;;;;;;;;21.00;57.00;;;;;;5433667;26;1278;-90
2024/05/07 06:34:02;;;;;;;;;;;21.00;57.00;;;;;;5434053;26;1169;-91
2024/05/07 06:36:27;;;;;;;;;;;21.00;56.80;;;;;;5465727;26;844;-90
2024/05/07 06:38:52;;;;;;;;;;;21.00;56.90;;;;;;5434221;26;1150;-91
2024/05/07 06:41:18;;;;;;;;;;;21.00;56.70;;;;;;5433763;26;1616;-91
2024/05/07 06:43:43;;;;;;;;;;;21.00;57.20;;;;;;5466573;26;1026;-91
2024/05/07 06:46:09;;;;;;;;;;;21.00;57.80;;;;;;5434458;26;1260;-91
2024/05/07 06:48:34;;;;;;;;;;;21.10;57.80;;;;;;5434094;26;1817;-91
2024/05/07 06:50:59;;;;;;;;;;;21.10;58.10;;;;;;5465419;26;1597;-91
2024/05/07 06:53:25;;;;;;;;;;;21.10;58.20;;;;;;5465788;26;1478;-90
2024/05/07 06:55:51;;;;;;;;;;;21.10;57.90;;;;;;5435020;26;1187;-90
2024/05/07 06:58:17;;;;;;;;;;;21.10;57.90;;;;;;5466560;26;844;-91
2024/05/07 07:00:42;;;;;;;;;;;21.10;57.60;;;;;;5465693;26;1122;-92
2024/05/07 07:03:07;;;;;;;;;;;21.10;57.40;;;;;;5434368;26;1615;-91
2024/05/07 07:05:33;;;;;;;;;;;21.10;57.80;;;;;;5465888;26;1687;-92
2024/05/07 07:07:58;;;;;;;;;;;21.10;57.40;;;;;;5466069;26;903;-91
2024/05/07 07:10:23;;;;;;;;;;;21.10;57.10;;;;;;5465560;26;1822;-91
2024/05/07 07:12:49;;;;;;;;;;;21.10;57.70;;;;;;5465253;26;1602;-91
2024/05/07 07:15:14;;;;;;;;;;;21.10;57.20;;;;;;5465118;26;1545;-91
2024/05/07 07:17:40;;;;;;;;;;;21.20;57.10;;;;;;5433679;26;1200;-91
2024/05/07 07:20:05;;;;;;;;;;;21.10;57.00;;;;;;5433180;26;1635;-91
2024/05/07 07:22:30;;;;;;;;;;;21.20;57.00;;;;;;5433981;26;1316;-91
2024/05/07 07:24:57;;;;;;;;;;;21.10;56.90;;;;;;5464869;26;912;-91
2024/05/07 07:27:22;;;;;;;;;;;21.10;56.80;;;;;;5463513;26;890;-91
2024/05/07 07:29:48;;;;;;;;;;;21.10;56.90;;;;;;5429489;26;1840;-92
2024/05/07 07:32:13;;;;;;;;;;;21.20;56.80;;;;;;5461012;26;1510;-91
2024/05/07 07:34:39;;;;;;;;;;;21.20;56.80;;;;;;5460497;26;1489;-92
2024/05/07 07:37:06;;;;;;;;;;;21.20;56.80;;;;;;5460704;26;852;-91
2024/05/07 07:39:32;;;;;;;;;;;21.20;56.80;;;;;;5429638;26;1292;-91
2024/05/07 07:41:57;;;;;;;;;;;21.20;56.70;;;;;;5460474;26;1369;-92
2024/05/07 07:44:22;;;;;;;;;;;21.20;56.80;;;;;;5460961;26;1413;-91
2024/05/07 07:46:48;;;;;;;;;;;21.20;56.60;;;;;;5461392;26;923;-92
2024/05/07 07:49:13;;;;;;;;;;;21.20;56.60;;;;;;5459924;26;1851;-92
2024/05/07 07:51:39;;;;;;;;;;;21.20;56.60;;;;;;5461119;26;1085;-92
2024/05/07 07:54:04;;;;;;;;;;;21.20;56.60;;;;;;5460284;26;1578;-91
2024/05/07 07:56:30;;;;;;;;;;;21.20;56.50;;;;;;5460585;26;922;-91
2024/05/07 07:58:55;;;;;;;;;;;21.20;56.50;;;;;;5460280;26;1373;-91
2024/05/07 08:01:21;;;;;;;;;;;21.20;56.40;;;;;;5458424;26;1700;-91
2024/05/07 08:03:46;;;;;;;;;;;21.20;56.40;;;;;;5460314;26;1733;-91
2024/05/07 08:06:11;;;;;;;;;;;21.20;56.40;;;;;;5458542;26;1230;-92
2024/05/07 08:08:37;;;;;;;;;;;21.20;56.40;;;;;;5460070;26;1840;-91
2024/05/07 08:11:02;;;;;;;;;;;21.20;56.30;;;;;;5496106;26;1105;-90
2024/05/07 08:13:28;;;;;;;;;;;21.20;56.30;;;;;;5496763;26;1552;-91
2024/05/07 08:15:53;;;;;;;;;;;21.20;56.30;;;;;;5464946;26;1255;-91
2024/05/07 08:18:21;;;;;;;;;;;21.20;56.30;;;;;;5497093;26;1061;-92
2024/05/07 08:20:47;;;;;;;;;;;21.20;56.30;;;;;;5464599;26;1739;-91
2024/05/07 08:23:12;;;;;;;;;;;21.20;56.20;;;;;;5464435;26;1224;-91
2024/05/07 08:25:37;;;;;;;;;;;21.20;56.20;;;;;;5496801;26;1025;-92
2024/05/07 08:28:03;;;;;;;;;;;21.20;56.10;;;;;;5496644;26;977;-91
2024/05/07 08:30:28;;;;;;;;;;;21.20;56.10;;;;;;5464728;26;1832;-91
2024/05/07 08:32:54;;;;;;;;;;;21.30;56.30;;;;;;5497349;26;849;-92
2024/05/07 08:35:19;;;;;;;;;;;21.20;56.10;;;;;;5497219;26;1091;-92
2024/05/07 08:37:44;;;;;;;;;;;21.20;56.10;;;;;;5497321;26;1026;-91
2024/05/07 08:40:11;;;;;;;;;;;21.20;56.10;;;;;;5497677;26;950;-91
2024/05/07 08:42:36;;;;;;;;;;;21.20;56.10;;;;;;5466220;26;1265;-92
2024/05/07 08:45:01;;;;;;;;;;;21.20;56.00;;;;;;5517354;26;1060;-90
2024/05/07 08:47:27;;;;;;;;;;;21.30;56.10;;;;;;5517313;26;894;-91
2024/05/07 08:49:52;;;;;;;;;;;21.30;56.10;;;;;;5517085;26;1816;-91
2024/05/07 08:52:18;;;;;;;;;;;21.30;56.00;;;;;;5517277;26;1119;-91
2024/05/07 08:54:43;;;;;;;;;;;21.30;55.90;;;;;;5517295;26;940;-91
2024/05/07 08:57:08;;;;;;;;;;;21.30;56.00;;;;;;5486587;26;1471;-90
2024/05/07 08:59:37;;;;;;;;;;;21.30;56.00;;;;;;5517179;26;872;-90
2024/05/07 09:02:02;;;;;;;;;;;21.30;55.90;;;;;;5517064;26;1105;-91
2024/05/07 09:04:29;;;;;;;;;;;21.30;56.00;;;;;;5486289;26;1174;-91
2024/05/07 09:06:54;;;;;;;;;;;21.30;55.90;;;;;;5517089;26;914;-91
2024/05/07 09:09:20;;;;;;;;;;;21.30;55.90;;;;;;5486263;26;1849;-91
2024/05/07 09:11:45;;;;;;;;;;;21.30;55.90;;;;;;5517008;26;1196;-90
2024/05/07 09:14:10;;;;;;;;;;;21.30;55.90;;;;;;5516095;26;968;-91
2024/05/07 09:16:36;;;;;;;;;;;21.30;55.90;;;;;;5515242;26;1065;-91
2024/05/07 09:19:01;;;;;;;;;;;21.30;55.90;;;;;;5515440;26;1205;-92
2024/05/07 09:21:26;;;;;;;;;;;21.30;55.90;;;;;;5501366;26;1053;-92
2024/05/07 09:23:52;;;;;;;;;;;21.30;55.80;;;;;;5496208;26;1021;-91
2024/05/07 09:26:17;;;;;;;;;;;21.30;55.80;;;;;;5495414;26;906;-91
2024/05/07 09:28:43;;;;;;;;;;;21.30;55.80;;;;;;5495917;26;1821;-91
2024/05/07 09:31:08;;;;;;;;;;;21.30;55.80;;;;;;5495973;26;879;-91
2024/05/07 09:33:33;;;;;;;;;;;21.30;55.70;;;;;;5495862;26;932;-91
2024/05/07 09:35:59;;;;;;;;;;;21.30;55.70;;;;;;5495375;26;1042;-92
2024/05/07 09:38:24;;;;;;;;;;;21.30;55.70;;;;;;5495960;26;947;-91
2024/05/07 09:40:49;;;;;;;;;;;21.30;55.70;;;;;;5495295;26;1033;-91
2024/05/07 09:43:15;;;;;;;;;;;21.30;55.60;;;;;;5495698;26;850;-92
2024/05/07 09:45:40;;;;;;;;;;;21.40;55.80;;;;;;5496032;26;997;-92
2024/05/07 09:48:05;;;;;;;;;;;21.30;55.70;;;;;;5495719;26;1022;-92
2024/05/07 09:50:31;;;;;;;;;;;21.30;55.80;;;;;;5493873;26;1814;-91
2024/05/07 09:52:56;;;;;;;;;;;21.30;55.70;;;;;;5495513;26;1005;-91
2024/05/07 09:55:22;;;;;;;;;;;21.30;55.70;;;;;;5495778;26;934;-91
2024/05/07 09:57:47;;;;;;;;;;;21.30;55.70;;;;;;5495799;26;905;-92
2024/05/07 10:00:12;;;;;;;;;;;21.30;55.70;;;;;;5495782;26;1176;-90
2024/05/07 10:02:38;;;;;;;;;;;21.30;55.60;;;;;;5495753;26;901;-91
2024/05/07 10:05:03;;;;;;;;;;;21.30;55.70;;;;;;5463758;26;1201;-91
2024/05/07 10:07:31;;;;;;;;;;;21.30;55.60;;;;;;5494802;26;1081;-91
2024/05/07 10:09:57;;;;;;;;;;;21.30;55.60;;;;;;5494746;26;1809;-92
2024/05/07 10:12:22;;;;;;;;;;;21.30;55.60;;;;;;5462831;26;1332;-92
2024/05/07 10:14:48;;;;;;;;;;;21.30;55.60;;;;;;5494756;26;910;-92
2024/05/07 10:17:13;;;;;;;;;;;21.30;55.60;;;;;;5495768;26;1046;-91
2024/05/07 10:19:38;;;;;;;;;;;21.30;55.60;;;;;;5495396;26;1168;-92
2024/05/07 10:22:04;;;;;;;;;;;21.40;55.70;;;;;;5463533;26;1221;-92
2024/05/07 10:24:30;;;;;;;;;;;21.40;55.70;;;;;;5495788;26;867;-92
2024/05/07 10:26:55;;;;;;;;;;;21.30;55.80;;;;;;5495173;26;855;-91
2024/05/07 10:29:22;;;;;;;;;;;21.40;55.90;;;;;;5462740;26;1813;-92
2024/05/07 10:31:47;;;;;;;;;;;21.30;55.90;;;;;;5495362;26;882;-92
2024/05/07 10:34:12;;;;;;;;;;;21.40;56.00;;;;;;5494911;26;921;-92
2024/05/07 10:36:38;;;;;;;;;;;21.40;56.00;;;;;;5495079;26;923;-92
2024/05/07 10:39:03;;;;;;;;;;;21.30;55.80;;;;;;5463559;26;1264;-92
2024/05/07 10:41:28;;;;;;;;;;;21.40;56.00;;;;;;5463037;26;1201;-92
2024/05/07 10:43:54;;;;;;;;;;;21.30;55.90;;;;;;5463102;26;1245;-92
2024/05/07 10:46:19;;;;;;;;;;;21.30;56.00;;;;;;5494593;26;900;-92
2024/05/07 10:48:45;;;;;;;;;;;21.30;56.10;;;;;;5462924;26;1822;-92
2024/05/07 10:51:13;;;;;;;;;;;21.30;56.10;;;;;;5462905;26;1269;-91
2024/05/07 10:53:38;;;;;;;;;;;21.30;56.20;;;;;;5463551;26;1325;-92
2024/05/07 10:56:04;;;;;;;;;;;21.40;56.60;;;;;;5495571;26;1013;-91
2024/05/07 10:58:29;;;;;;;;;;;21.40;56.60;;;;;;5496436;26;968;-91
2024/05/07 11:00:55;;;;;;;;;;;21.30;56.30;;;;;;5467370;26;1319;-92
2024/05/07 11:03:20;;;;;;;;;;;21.30;56.40;;;;;;5476071;26;1216;-92
2024/05/07 11:05:45;;;;;;;;;;;21.30;56.40;;;;;;5510481;26;950;-92
2024/05/07 11:08:11;;;;;;;;;;;21.30;56.40;;;;;;5509615;26;900;-91
2024/05/07 11:10:36;;;;;;;;;;;21.30;56.50;;;;;;5509316;26;1805;-91
2024/05/07 11:13:01;;;;;;;;;;;21.30;56.60;;;;;;5478050;26;1182;-92
2024/05/07 11:15:27;;;;;;;;;;;21.30;56.60;;;;;;5478104;26;1210;-92
2024/05/07 11:17:52;;;;;;;;;;;21.30;56.60;;;;;;5510041;26;993;-92
2024/05/07 11:20:18;;;;;;;;;;;21.30;56.80;;;;;;5478153;26;1295;-92
2024/05/07 11:22:43;;;;;;;;;;;21.30;56.80;;;;;;5478096;26;1189;-92
2024/05/07 11:25:09;;;;;;;;;;;21.30;56.90;;;;;;5510304;26;1054;-92
2024/05/07 11:27:34;;;;;;;;;;;21.30;56.90;;;;;;5510400;26;1057;-92
2024/05/07 11:29:59;;;;;;;;;;;21.30;57.10;;;;;;5509390;26;1805;-93
2024/05/07 11:32:25;;;;;;;;;;;21.40;57.00;;;;;;5500512;26;1065;-94
2024/05/07 11:34:50;;;;;;;;;;;21.30;57.10;;;;;;5504460;26;962;-92
2024/05/07 11:37:16;;;;;;;;;;;21.30;57.20;;;;;;5468700;26;1197;-93
2024/05/07 11:39:41;;;;;;;;;;;21.30;57.30;;;;;;5468635;26;1233;-92
2024/05/07 11:42:06;;;;;;;;;;;21.20;57.10;;;;;;5502672;26;1053;-92
2024/05/07 11:44:32;;;;;;;;;;;21.30;57.20;;;;;;5500885;26;1089;-93
2024/05/07 11:46:57;;;;;;;;;;;21.30;57.30;;;;;;5500273;26;910;-93
2024/05/07 11:49:22;;;;;;;;;;;21.30;57.60;;;;;;5499785;26;1805;-93
2024/05/07 11:51:48;;;;;;;;;;;21.30;57.60;;;;;;5499060;26;1018;-93
2024/05/07 11:54:14;;;;;;;;;;;21.40;57.70;;;;;;5498552;26;1049;-92
2024/05/07 11:56:39;;;;;;;;;;;21.40;57.60;;;;;;5466624;26;1284;-92
2024/05/07 11:59:04;;;;;;;;;;;21.30;57.60;;;;;;5498870;26;930;-93
2024/05/07 12:01:30;;;;;;;;;;;21.30;57.50;;;;;;5459754;26;1014965;-92
2024/05/07 12:03:55;;;;;;;;;;;21.30;57.40;;;;;;5466890;26;1201;-93
2024/05/07 12:06:20;;;;;;;;;;;21.30;57.60;;;;;;5498328;26;1045;-92
2024/05/07 12:08:46;;;;;;;;;;;21.30;57.60;;;;;;5498695;26;1868;-93
2024/05/07 12:11:11;;;;;;;;;;;21.30;57.70;;;;;;5498752;26;924;-93
2024/05/07 12:13:37;;;;;;;;;;;21.30;57.70;;;;;;5497612;26;902;-93
2024/05/07 12:16:02;;;;;;;;;;;21.30;57.90;;;;;;5466734;26;1297;-92
2024/05/07 12:18:27;;;;;;;;;;;21.30;57.80;;;;;;5466403;26;1196;-93
2024/05/07 12:20:53;;;;;;;;;;;21.30;57.80;;;;;;5498087;26;1205;-92
2024/05/07 12:26:06;;;;;;;;;;;21.30;57.90;;;;;;5499919;26;637;-93
2024/05/07 12:28:31;;;;;;;;;;;21.30;57.90;;;;;;5466378;26;1808;-93
2024/05/07 12:30:56;;;;;;;;;;;21.30;58.00;;;;;;5466148;26;1218;-93
2024/05/07 12:33:22;;;;;;;;;;;21.30;58.00;;;;;;5498084;26;993;-93
2024/05/07 12:35:49;;;;;;;;;;;21.40;58.00;;;;;;5498481;26;849;-94
2024/05/07 12:38:14;;;;;;;;;;;21.30;58.00;;;;;;5466963;26;1336;-94
2024/05/07 12:40:39;;;;;;;;;;;21.30;57.90;;;;;;5467013;26;1253;-93
2024/05/07 12:43:05;;;;;;;;;;;21.30;58.00;;;;;;5467355;26;1154;-92
2024/05/07 12:45:31;;;;;;;;;;;21.30;57.90;;;;;;5498922;26;891;-93
2024/05/07 12:47:56;;;;;;;;;;;21.30;57.90;;;;;;5467034;26;1323;-93
2024/05/07 12:50:22;;;;;;;;;;;21.30;57.90;;;;;;5500576;26;1848;-92
2024/05/07 12:52:47;;;;;;;;;;;21.30;58.00;;;;;;5501561;26;945;-93
2024/05/07 12:55:13;;;;;;;;;;;21.30;58.00;;;;;;5502203;26;1125;-93
2024/05/07 12:57:40;;;;;;;;;;;21.30;58.00;;;;;;5517212;26;1064;-93
2024/05/07 13:00:06;;;;;;;;;;;21.30;59.20;;;;;;5486552;26;1275;-93
2024/05/07 13:02:32;;;;;;;;;;;21.30;58.10;;;;;;5486362;26;1244;-92
2024/05/07 13:04:58;;;;;;;;;;;21.30;58.20;;;;;;5516932;26;849;-93
2024/05/07 13:07:27;;;;;;;;;;;21.30;58.20;;;;;;5517146;26;932;-92
2024/05/07 13:09:52;;;;;;;;;;;21.30;58.20;;;;;;5517057;26;1813;-93
2024/05/07 13:12:17;;;;;;;;;;;21.30;58.20;;;;;;5516930;26;927;-92
2024/05/07 13:14:43;;;;;;;;;;;21.30;58.20;;;;;;5516682;26;854;-93
2024/05/07 13:17:08;;;;;;;;;;;21.40;58.30;;;;;;5516698;26;865;-94
2024/05/07 13:19:33;;;;;;;;;;;21.40;58.20;;;;;;5485756;26;1351;-91
2024/05/07 13:21:59;;;;;;;;;;;21.30;58.90;;;;;;5516610;26;1056;-93
2024/05/07 13:24:24;;;;;;;;;;;21.30;58.40;;;;;;5485793;26;1253;-93
2024/05/07 13:26:50;;;;;;;;;;;21.30;58.40;;;;;;5483166;26;1246;-89
2024/05/07 13:29:15;;;;;;;;;;;21.30;58.40;;;;;;5514503;26;1812;-90
2024/05/07 13:31:41;;;;;;;;;;;21.30;58.40;;;;;;5484174;26;1290;-90
2024/05/07 13:34:07;;;;;;;;;;;21.30;58.40;;;;;;5471848;26;1406;-91
2024/05/07 13:36:35;;;;;;;;;;;21.30;58.50;;;;;;5495607;26;1472;-93
2024/05/07 13:39:00;;;;;;;;;;;21.30;58.60;;;;;;5496221;26;1641;-91
2024/05/07 13:41:26;;;;;;;;;;;21.30;59.10;;;;;;5495453;26;928;-93
2024/05/07 13:43:51;;;;;;;;;;;21.30;60.20;;;;;;5495686;26;1022;-92
2024/05/07 13:46:16;;;;;;;;;;;21.30;61.10;;;;;;5496083;26;915;-91
2024/05/07 13:48:42;;;;;;;;;;;21.30;61.70;;;;;;5463912;26;1813;-92
2024/05/07 13:51:07;;;;;;;;;;;21.30;62.10;;;;;;5463892;26;1197;-92
2024/05/07 13:53:32;;;;;;;;;;;21.30;62.10;;;;;;5463454;26;1308;-91
2024/05/07 13:55:58;;;;;;;;;;;21.30;62.40;;;;;;5495168;26;1028;-91
2024/05/07 13:58:23;;;;;;;;;;;21.30;62.60;;;;;;5495517;26;879;-91
2024/05/07 14:00:49;;;;;;;;;;;21.30;62.10;;;;;;5495821;26;1169;-93
2024/05/07 14:03:14;;;;;;;;;;;21.30;62.40;;;;;;5463680;26;1251;-92
2024/05/07 14:05:39;;;;;;;;;;;21.20;62.20;;;;;;5495307;26;946;-92
2024/05/07 14:08:05;;;;;;;;;;;21.30;62.10;;;;;;5495521;26;874;-92
2024/05/07 14:10:30;;;;;;;;;;;21.30;62.10;;;;;;5462947;26;1890;-94
2024/05/07 14:12:55;;;;;;;;;;;21.30;61.80;;;;;;5495197;26;1058;-92
2024/05/07 14:15:21;;;;;;;;;;;21.30;61.90;;;;;;5494788;26;989;-92
2024/05/07 14:17:47;;;;;;;;;;;21.30;61.70;;;;;;5462899;26;1462;-92
2024/05/07 14:20:12;;;;;;;;;;;21.30;60.90;;;;;;5495064;26;1208;-92
2024/05/07 14:22:37;;;;;;;;;;;21.30;60.50;;;;;;5462464;26;1251;-91
2024/05/07 14:25:03;;;;;;;;;;;21.30;60.30;;;;;;5462252;26;1300;-92